sensor_id;sensor_type;location;lat;lon;timestamp;P1;durP1;ratioP1;P2;durP2;ratioP2
13267;SDS011;6702;47.068;15.458;2023-05-13T00:00:42;2.60;;;2.40;;
13267;SDS011;6702;47.068;15.458;2023-05-13T00:03:45;2.27;;;2.07;;
13267;SDS011;6702;47.068;15.458;2023-05-13T00:06:48;2.33;;;2.13;;
13267;SDS011;6702;47.068;15.458;2023-05-13T00:09:52;2.93;;;2.60;;
13267;SDS011;6702;47.068;15.458;2023-05-13T00:12:55;2.17;;;2.00;;
13267;SDS011;6702;47.068;15.458;2023-05-13T00:16:00;1.80;;;1.70;;
13267;SDS011;6702;47.068;15.458;2023-05-13T00:19:04;1.90;;;1.80;;
13267;SDS011;6702;47.068;15.458;2023-05-13T00:22:07;1.80;;;1.70;;
13267;SDS011;6702;47.068;15.458;2023-05-13T00:25:11;1.77;;;1.67;;
13267;SDS011;6702;47.068;15.458;2023-05-13T00:28:14;1.70;;;1.60;;
13267;SDS011;6702;47.068;15.458;2023-05-13T00:31:19;1.67;;;1.57;;
13267;SDS011;6702;47.068;15.458;2023-05-13T00:34:22;1.90;;;1.70;;
13267;SDS011;6702;47.068;15.458;2023-05-13T00:37:25;1.40;;;1.30;;
13267;SDS011;6702;47.068;15.458;2023-05-13T00:40:28;1.60;;;1.50;;
13267;SDS011;6702;47.068;15.458;2023-05-13T00:43:32;1.47;;;1.37;;
13267;SDS011;6702;47.068;15.458;2023-05-13T00:46:36;2.10;;;1.93;;
13267;SDS011;6702;47.068;15.458;2023-05-13T00:49:39;2.30;;;2.10;;
13267;SDS011;6702;47.068;15.458;2023-05-13T00:52:43;1.43;;;1.13;;
13267;SDS011;6702;47.068;15.458;2023-05-13T00:55:47;2.13;;;1.60;;
13267;SDS011;6702;47.068;15.458;2023-05-13T00:58:51;1.67;;;1.57;;
13267;SDS011;6702;47.068;15.458;2023-05-13T01:01:57;1.47;;;1.37;;
13267;SDS011;6702;47.068;15.458;2023-05-13T01:05:10;2.17;;;1.40;;
13267;SDS011;6702;47.068;15.458;2023-05-13T01:08:25;2.17;;;1.97;;
13267;SDS011;6702;47.068;15.458;2023-05-13T01:11:35;2.50;;;1.50;;
13267;SDS011;6702;47.068;15.458;2023-05-13T01:14:43;1.67;;;1.57;;
13267;SDS011;6702;47.068;15.458;2023-05-13T01:17:56;2.60;;;1.47;;
13267;SDS011;6702;47.068;15.458;2023-05-13T01:21:02;2.80;;;1.60;;
13267;SDS011;6702;47.068;15.458;2023-05-13T01:24:08;1.50;;;1.40;;
13267;SDS011;6702;47.068;15.458;2023-05-13T01:27:12;1.70;;;1.60;;
13267;SDS011;6702;47.068;15.458;2023-05-13T01:30:15;1.53;;;1.43;;
13267;SDS011;6702;47.068;15.458;2023-05-13T01:33:19;1.63;;;1.10;;
13267;SDS011;6702;47.068;15.458;2023-05-13T01:36:22;2.20;;;1.40;;
13267;SDS011;6702;47.068;15.458;2023-05-13T01:39:27;1.33;;;1.23;;
13267;SDS011;6702;47.068;15.458;2023-05-13T01:42:32;1.60;;;1.50;;
13267;SDS011;6702;47.068;15.458;2023-05-13T01:45:35;1.47;;;1.30;;
13267;SDS011;6702;47.068;15.458;2023-05-13T01:48:38;1.40;;;1.30;;
13267;SDS011;6702;47.068;15.458;2023-05-13T01:51:42;1.37;;;1.20;;
13267;SDS011;6702;47.068;15.458;2023-05-13T01:54:46;1.00;;;0.90;;
13267;SDS011;6702;47.068;15.458;2023-05-13T01:57:49;1.43;;;1.33;;
13267;SDS011;6702;47.068;15.458;2023-05-13T02:00:52;1.20;;;1.10;;
13267;SDS011;6702;47.068;15.458;2023-05-13T02:03:56;2.13;;;1.23;;
13267;SDS011;6702;47.068;15.458;2023-05-13T02:07:00;1.30;;;1.20;;
13267;SDS011;6702;47.068;15.458;2023-05-13T02:10:05;1.60;;;1.47;;
13267;SDS011;6702;47.068;15.458;2023-05-13T02:13:09;1.33;;;1.10;;
13267;SDS011;6702;47.068;15.458;2023-05-13T02:16:15;2.10;;;1.20;;
13267;SDS011;6702;47.068;15.458;2023-05-13T02:19:20;2.00;;;1.80;;
13267;SDS011;6702;47.068;15.458;2023-05-13T02:22:25;1.93;;;1.30;;
13267;SDS011;6702;47.068;15.458;2023-05-13T02:25:29;1.37;;;1.27;;
13267;SDS011;6702;47.068;15.458;2023-05-13T02:28:32;1.30;;;1.20;;
13267;SDS011;6702;47.068;15.458;2023-05-13T02:31:36;1.40;;;1.30;;
13267;SDS011;6702;47.068;15.458;2023-05-13T02:34:39;1.40;;;1.30;;
13267;SDS011;6702;47.068;15.458;2023-05-13T02:37:44;1.77;;;1.67;;
13267;SDS011;6702;47.068;15.458;2023-05-13T02:40:49;1.37;;;1.27;;
13267;SDS011;6702;47.068;15.458;2023-05-13T02:43:52;1.10;;;1.10;;
13267;SDS011;6702;47.068;15.458;2023-05-13T02:46:55;2.40;;;1.60;;
13267;SDS011;6702;47.068;15.458;2023-05-13T02:49:58;1.73;;;1.63;;
13267;SDS011;6702;47.068;15.458;2023-05-13T02:53:02;1.80;;;1.67;;
13267;SDS011;6702;47.068;15.458;2023-05-13T02:56:06;1.43;;;1.33;;
13267;SDS011;6702;47.068;15.458;2023-05-13T02:59:09;1.40;;;1.30;;
13267;SDS011;6702;47.068;15.458;2023-05-13T03:02:12;1.80;;;1.70;;
13267;SDS011;6702;47.068;15.458;2023-05-13T03:05:16;1.50;;;1.40;;
13267;SDS011;6702;47.068;15.458;2023-05-13T03:08:19;3.50;;;1.67;;
13267;SDS011;6702;47.068;15.458;2023-05-13T03:11:23;1.60;;;1.50;;
13267;SDS011;6702;47.068;15.458;2023-05-13T03:14:27;1.70;;;1.53;;
13267;SDS011;6702;47.068;15.458;2023-05-13T03:17:30;3.10;;;1.93;;
13267;SDS011;6702;47.068;15.458;2023-05-13T03:20:33;1.67;;;1.57;;
13267;SDS011;6702;47.068;15.458;2023-05-13T03:23:37;1.73;;;1.63;;
13267;SDS011;6702;47.068;15.458;2023-05-13T03:26:41;5.67;;;2.17;;
13267;SDS011;6702;47.068;15.458;2023-05-13T03:29:44;1.97;;;1.87;;
13267;SDS011;6702;47.068;15.458;2023-05-13T03:32:47;1.97;;;1.87;;
13267;SDS011;6702;47.068;15.458;2023-05-13T03:35:50;2.00;;;1.90;;
13267;SDS011;6702;47.068;15.458;2023-05-13T03:38:54;1.67;;;1.57;;
13267;SDS011;6702;47.068;15.458;2023-05-13T03:41:58;1.97;;;1.73;;
13267;SDS011;6702;47.068;15.458;2023-05-13T03:45:01;2.17;;;2.07;;
13267;SDS011;6702;47.068;15.458;2023-05-13T03:48:05;1.90;;;1.80;;
13267;SDS011;6702;47.068;15.458;2023-05-13T03:51:08;1.47;;;1.37;;
13267;SDS011;6702;47.068;15.458;2023-05-13T03:54:11;1.80;;;1.70;;
13267;SDS011;6702;47.068;15.458;2023-05-13T03:57:16;2.43;;;2.33;;
13267;SDS011;6702;47.068;15.458;2023-05-13T04:00:19;1.90;;;1.80;;
13267;SDS011;6702;47.068;15.458;2023-05-13T04:03:23;2.33;;;2.20;;
13267;SDS011;6702;47.068;15.458;2023-05-13T04:06:26;2.40;;;2.17;;
13267;SDS011;6702;47.068;15.458;2023-05-13T04:09:29;2.50;;;2.30;;
13267;SDS011;6702;47.068;15.458;2023-05-13T04:12:34;2.60;;;2.20;;
13267;SDS011;6702;47.068;15.458;2023-05-13T04:15:37;2.60;;;2.40;;
13267;SDS011;6702;47.068;15.458;2023-05-13T04:18:40;2.60;;;2.40;;
13267;SDS011;6702;47.068;15.458;2023-05-13T04:21:44;2.80;;;2.60;;
13267;SDS011;6702;47.068;15.458;2023-05-13T04:24:47;3.00;;;2.80;;
13267;SDS011;6702;47.068;15.458;2023-05-13T04:27:58;2.80;;;2.60;;
13267;SDS011;6702;47.068;15.458;2023-05-13T04:31:01;3.40;;;3.10;;
13267;SDS011;6702;47.068;15.458;2023-05-13T04:34:04;3.73;;;3.43;;
13267;SDS011;6702;47.068;15.458;2023-05-13T04:37:07;4.00;;;3.70;;
13267;SDS011;6702;47.068;15.458;2023-05-13T04:40:11;4.07;;;3.67;;
13267;SDS011;6702;47.068;15.458;2023-05-13T04:43:15;4.20;;;3.80;;
13267;SDS011;6702;47.068;15.458;2023-05-13T04:46:24;4.00;;;3.70;;
13267;SDS011;6702;47.068;15.458;2023-05-13T04:49:27;4.80;;;4.40;;
13267;SDS011;6702;47.068;15.458;2023-05-13T04:52:31;5.13;;;4.73;;
13267;SDS011;6702;47.068;15.458;2023-05-13T04:55:34;5.80;;;5.30;;
13267;SDS011;6702;47.068;15.458;2023-05-13T04:58:38;6.60;;;6.00;;
13267;SDS011;6702;47.068;15.458;2023-05-13T05:01:41;6.37;;;5.80;;
13267;SDS011;6702;47.068;15.458;2023-05-13T05:04:45;13.93;;;6.20;;
13267;SDS011;6702;47.068;15.458;2023-05-13T05:07:49;8.20;;;6.47;;
13267;SDS011;6702;47.068;15.458;2023-05-13T05:10:52;6.07;;;5.27;;
13267;SDS011;6702;47.068;15.458;2023-05-13T05:13:57;6.70;;;6.10;;
13267;SDS011;6702;47.068;15.458;2023-05-13T05:17:00;6.53;;;5.93;;
13267;SDS011;6702;47.068;15.458;2023-05-13T05:20:04;7.03;;;6.33;;
13267;SDS011;6702;47.068;15.458;2023-05-13T05:23:08;7.33;;;6.63;;
13267;SDS011;6702;47.068;15.458;2023-05-13T05:26:11;9.00;;;8.10;;
13267;SDS011;6702;47.068;15.458;2023-05-13T05:29:16;7.70;;;6.90;;
13267;SDS011;6702;47.068;15.458;2023-05-13T05:32:19;10.07;;;9.17;;
13267;SDS011;6702;47.068;15.458;2023-05-13T05:35:23;8.07;;;7.37;;
13267;SDS011;6702;47.068;15.458;2023-05-13T05:38:26;10.80;;;9.80;;
13267;SDS011;6702;47.068;15.458;2023-05-13T05:41:29;10.50;;;9.60;;
13267;SDS011;6702;47.068;15.458;2023-05-13T05:44:35;11.23;;;10.13;;
13267;SDS011;6702;47.068;15.458;2023-05-13T05:47:38;11.30;;;10.20;;
13267;SDS011;6702;47.068;15.458;2023-05-13T05:50:42;12.00;;;10.17;;
13267;SDS011;6702;47.068;15.458;2023-05-13T05:53:45;12.20;;;10.43;;
13267;SDS011;6702;47.068;15.458;2023-05-13T05:56:48;12.57;;;11.47;;
13267;SDS011;6702;47.068;15.458;2023-05-13T05:59:52;11.80;;;10.60;;
13267;SDS011;6702;47.068;15.458;2023-05-13T06:02:56;12.63;;;11.33;;
13267;SDS011;6702;47.068;15.458;2023-05-13T06:05:59;12.30;;;11.10;;
13267;SDS011;6702;47.068;15.458;2023-05-13T06:09:02;13.07;;;11.67;;
13267;SDS011;6702;47.068;15.458;2023-05-13T06:12:06;10.90;;;10.00;;
13267;SDS011;6702;47.068;15.458;2023-05-13T06:15:11;12.60;;;11.40;;
13267;SDS011;6702;47.068;15.458;2023-05-13T06:18:14;11.33;;;10.33;;
13267;SDS011;6702;47.068;15.458;2023-05-13T06:21:17;11.03;;;9.97;;
13267;SDS011;6702;47.068;15.458;2023-05-13T06:24:20;10.40;;;9.50;;
13267;SDS011;6702;47.068;15.458;2023-05-13T06:27:23;10.60;;;9.40;;
13267;SDS011;6702;47.068;15.458;2023-05-13T06:30:28;11.03;;;10.00;;
13267;SDS011;6702;47.068;15.458;2023-05-13T06:33:31;10.87;;;9.87;;
13267;SDS011;6702;47.068;15.458;2023-05-13T06:36:34;11.07;;;9.87;;
13267;SDS011;6702;47.068;15.458;2023-05-13T06:39:37;11.03;;;9.93;;
13267;SDS011;6702;47.068;15.458;2023-05-13T06:42:41;11.53;;;8.93;;
13267;SDS011;6702;47.068;15.458;2023-05-13T06:45:45;9.23;;;8.33;;
13267;SDS011;6702;47.068;15.458;2023-05-13T06:48:49;10.17;;;9.07;;
13267;SDS011;6702;47.068;15.458;2023-05-13T06:51:54;8.97;;;8.13;;
13267;SDS011;6702;47.068;15.458;2023-05-13T06:54:57;10.30;;;8.60;;
13267;SDS011;6702;47.068;15.458;2023-05-13T06:58:00;9.80;;;8.90;;
13267;SDS011;6702;47.068;15.458;2023-05-13T07:01:05;8.37;;;7.67;;
13267;SDS011;6702;47.068;15.458;2023-05-13T07:04:08;9.33;;;8.53;;
13267;SDS011;6702;47.068;15.458;2023-05-13T07:07:11;9.77;;;8.93;;
13267;SDS011;6702;47.068;15.458;2023-05-13T07:10:16;8.70;;;7.90;;
13267;SDS011;6702;47.068;15.458;2023-05-13T07:13:19;7.53;;;6.93;;
13267;SDS011;6702;47.068;15.458;2023-05-13T07:16:23;7.70;;;7.00;;
13267;SDS011;6702;47.068;15.458;2023-05-13T07:19:27;7.07;;;6.47;;
13267;SDS011;6702;47.068;15.458;2023-05-13T07:22:30;6.90;;;6.40;;
13267;SDS011;6702;47.068;15.458;2023-05-13T07:25:33;6.83;;;6.30;;
13267;SDS011;6702;47.068;15.458;2023-05-13T07:28:36;6.63;;;5.47;;
13267;SDS011;6702;47.068;15.458;2023-05-13T07:31:41;6.37;;;5.83;;
13267;SDS011;6702;47.068;15.458;2023-05-13T07:34:44;6.33;;;5.83;;
13267;SDS011;6702;47.068;15.458;2023-05-13T07:37:47;8.03;;;7.33;;
13267;SDS011;6702;47.068;15.458;2023-05-13T07:40:50;5.90;;;5.50;;
13267;SDS011;6702;47.068;15.458;2023-05-13T07:43:54;6.30;;;5.70;;
13267;SDS011;6702;47.068;15.458;2023-05-13T07:46:58;5.97;;;5.47;;
13267;SDS011;6702;47.068;15.458;2023-05-13T07:50:02;5.67;;;5.27;;
13267;SDS011;6702;47.068;15.458;2023-05-13T07:53:05;6.00;;;5.40;;
13267;SDS011;6702;47.068;15.458;2023-05-13T07:56:09;6.47;;;5.87;;
13267;SDS011;6702;47.068;15.458;2023-05-13T07:59:12;6.57;;;6.07;;
13267;SDS011;6702;47.068;15.458;2023-05-13T08:02:17;5.73;;;5.23;;
13267;SDS011;6702;47.068;15.458;2023-05-13T08:05:20;4.17;;;3.87;;
13267;SDS011;6702;47.068;15.458;2023-05-13T08:08:23;4.50;;;4.10;;
13267;SDS011;6702;47.068;15.458;2023-05-13T08:11:27;4.20;;;3.90;;
13267;SDS011;6702;47.068;15.458;2023-05-13T08:14:30;4.50;;;4.10;;
13267;SDS011;6702;47.068;15.458;2023-05-13T08:17:35;4.40;;;4.10;;
13267;SDS011;6702;47.068;15.458;2023-05-13T08:20:38;3.07;;;2.83;;
13267;SDS011;6702;47.068;15.458;2023-05-13T08:23:42;3.63;;;3.10;;
13267;SDS011;6702;47.068;15.458;2023-05-13T08:26:46;3.20;;;2.87;;
13267;SDS011;6702;47.068;15.458;2023-05-13T08:29:49;3.40;;;3.10;;
13267;SDS011;6702;47.068;15.458;2023-05-13T08:32:54;3.37;;;3.07;;
13267;SDS011;6702;47.068;15.458;2023-05-13T08:35:57;3.20;;;3.00;;
13267;SDS011;6702;47.068;15.458;2023-05-13T08:39:02;3.43;;;3.13;;
13267;SDS011;6702;47.068;15.458;2023-05-13T08:42:05;3.27;;;3.07;;
13267;SDS011;6702;47.068;15.458;2023-05-13T08:45:11;2.87;;;2.67;;
13267;SDS011;6702;47.068;15.458;2023-05-13T08:48:18;2.70;;;2.50;;
13267;SDS011;6702;47.068;15.458;2023-05-13T08:51:22;4.03;;;3.73;;
13267;SDS011;6702;47.068;15.458;2023-05-13T08:54:25;3.10;;;2.90;;
13267;SDS011;6702;47.068;15.458;2023-05-13T08:57:29;2.43;;;2.23;;
13267;SDS011;6702;47.068;15.458;2023-05-13T09:00:33;2.70;;;2.50;;
13267;SDS011;6702;47.068;15.458;2023-05-13T09:03:38;2.87;;;2.67;;
13267;SDS011;6702;47.068;15.458;2023-05-13T09:06:46;3.70;;;3.40;;
13267;SDS011;6702;47.068;15.458;2023-05-13T09:09:49;3.60;;;3.40;;
13267;SDS011;6702;47.068;15.458;2023-05-13T09:12:53;3.80;;;3.50;;
13267;SDS011;6702;47.068;15.458;2023-05-13T09:15:57;3.33;;;3.13;;
13267;SDS011;6702;47.068;15.458;2023-05-13T09:19:02;3.43;;;3.13;;
13267;SDS011;6702;47.068;15.458;2023-05-13T09:22:14;5.73;;;5.23;;
13267;SDS011;6702;47.068;15.458;2023-05-13T09:25:19;5.33;;;4.83;;
13267;SDS011;6702;47.068;15.458;2023-05-13T09:28:24;5.00;;;4.60;;
13267;SDS011;6702;47.068;15.458;2023-05-13T09:31:31;4.90;;;4.50;;
13267;SDS011;6702;47.068;15.458;2023-05-13T09:34:36;5.40;;;4.90;;
13267;SDS011;6702;47.068;15.458;2023-05-13T09:37:39;4.40;;;4.07;;
13267;SDS011;6702;47.068;15.458;2023-05-13T09:40:49;4.10;;;3.80;;
13267;SDS011;6702;47.068;15.458;2023-05-13T09:43:53;4.53;;;4.10;;
13267;SDS011;6702;47.068;15.458;2023-05-13T09:46:56;3.83;;;3.53;;
13267;SDS011;6702;47.068;15.458;2023-05-13T09:50:04;4.10;;;3.70;;
13267;SDS011;6702;47.068;15.458;2023-05-13T09:53:09;4.77;;;4.37;;
13267;SDS011;6702;47.068;15.458;2023-05-13T09:56:13;5.50;;;5.00;;
13267;SDS011;6702;47.068;15.458;2023-05-13T09:59:22;4.07;;;3.77;;
13267;SDS011;6702;47.068;15.458;2023-05-13T10:02:25;3.73;;;3.47;;
13267;SDS011;6702;47.068;15.458;2023-05-13T10:05:30;3.63;;;3.33;;
13267;SDS011;6702;47.068;15.458;2023-05-13T10:08:34;3.53;;;3.30;;
13267;SDS011;6702;47.068;15.458;2023-05-13T10:11:39;3.80;;;3.20;;
13267;SDS011;6702;47.068;15.458;2023-05-13T10:14:48;2.80;;;2.60;;
13267;SDS011;6702;47.068;15.458;2023-05-13T10:17:53;2.97;;;2.77;;
13267;SDS011;6702;47.068;15.458;2023-05-13T10:20:57;3.40;;;3.10;;
13267;SDS011;6702;47.068;15.458;2023-05-13T10:24:01;3.87;;;3.57;;
13267;SDS011;6702;47.068;15.458;2023-05-13T10:27:05;3.87;;;3.67;;
13267;SDS011;6702;47.068;15.458;2023-05-13T10:30:09;3.30;;;3.10;;
13267;SDS011;6702;47.068;15.458;2023-05-13T10:33:14;3.17;;;2.90;;
13267;SDS011;6702;47.068;15.458;2023-05-13T10:36:27;3.27;;;3.07;;
13267;SDS011;6702;47.068;15.458;2023-05-13T10:43:15;4.10;;;3.80;;
13267;SDS011;6702;47.068;15.458;2023-05-13T10:46:20;4.60;;;4.20;;
13267;SDS011;6702;47.068;15.458;2023-05-13T10:49:31;4.47;;;4.07;;
13267;SDS011;6702;47.068;15.458;2023-05-13T10:52:44;6.17;;;5.67;;
13267;SDS011;6702;47.068;15.458;2023-05-13T10:55:51;6.90;;;5.73;;
13267;SDS011;6702;47.068;15.458;2023-05-13T10:58:56;7.13;;;6.53;;
13267;SDS011;6702;47.068;15.458;2023-05-13T11:02:00;7.43;;;6.70;;
13267;SDS011;6702;47.068;15.458;2023-05-13T11:05:04;7.63;;;6.83;;
13267;SDS011;6702;47.068;15.458;2023-05-13T11:08:09;9.03;;;8.13;;
13267;SDS011;6702;47.068;15.458;2023-05-13T11:11:22;10.57;;;9.47;;
13267;SDS011;6702;47.068;15.458;2023-05-13T11:14:29;11.10;;;9.40;;
13267;SDS011;6702;47.068;15.458;2023-05-13T11:17:34;12.47;;;10.50;;
13267;SDS011;6702;47.068;15.458;2023-05-13T11:20:38;13.13;;;11.60;;
13267;SDS011;6702;47.068;15.458;2023-05-13T11:23:55;11.87;;;10.60;;
13267;SDS011;6702;47.068;15.458;2023-05-13T11:27:00;11.23;;;9.90;;
13267;SDS011;6702;47.068;15.458;2023-05-13T11:30:20;13.37;;;11.47;;
13267;SDS011;6702;47.068;15.458;2023-05-13T11:33:24;14.93;;;11.70;;
13267;SDS011;6702;47.068;15.458;2023-05-13T11:37:06;18.90;;;16.47;;
13267;SDS011;6702;47.068;15.458;2023-05-13T11:40:11;17.07;;;15.30;;
13267;SDS011;6702;47.068;15.458;2023-05-13T11:43:23;13.67;;;12.37;;
13267;SDS011;6702;47.068;15.458;2023-05-13T11:46:26;13.60;;;12.20;;
13267;SDS011;6702;47.068;15.458;2023-05-13T11:49:30;14.50;;;12.57;;
13267;SDS011;6702;47.068;15.458;2023-05-13T11:52:40;13.23;;;11.83;;
13267;SDS011;6702;47.068;15.458;2023-05-13T11:55:45;13.97;;;12.23;;
13267;SDS011;6702;47.068;15.458;2023-05-13T11:58:48;12.10;;;10.90;;
13267;SDS011;6702;47.068;15.458;2023-05-13T12:01:58;15.37;;;12.20;;
13267;SDS011;6702;47.068;15.458;2023-05-13T12:05:02;11.80;;;10.60;;
13267;SDS011;6702;47.068;15.458;2023-05-13T12:08:06;12.50;;;11.17;;
13267;SDS011;6702;47.068;15.458;2023-05-13T12:11:12;13.10;;;11.27;;
13267;SDS011;6702;47.068;15.458;2023-05-13T12:14:16;13.60;;;12.20;;
13267;SDS011;6702;47.068;15.458;2023-05-13T12:17:19;12.70;;;11.40;;
13267;SDS011;6702;47.068;15.458;2023-05-13T12:20:23;13.63;;;10.90;;
13267;SDS011;6702;47.068;15.458;2023-05-13T12:23:36;14.70;;;11.60;;
13267;SDS011;6702;47.068;15.458;2023-05-13T12:26:41;12.23;;;10.87;;
13267;SDS011;6702;47.068;15.458;2023-05-13T12:29:45;12.77;;;11.23;;
13267;SDS011;6702;47.068;15.458;2023-05-13T12:32:48;12.87;;;11.03;;
13267;SDS011;6702;47.068;15.458;2023-05-13T12:35:52;11.57;;;10.07;;
13267;SDS011;6702;47.068;15.458;2023-05-13T12:38:56;11.40;;;10.30;;
13267;SDS011;6702;47.068;15.458;2023-05-13T12:42:03;9.93;;;8.37;;
13267;SDS011;6702;47.068;15.458;2023-05-13T12:45:06;11.60;;;10.33;;
13267;SDS011;6702;47.068;15.458;2023-05-13T12:48:10;20.57;;;14.10;;
13267;SDS011;6702;47.068;15.458;2023-05-13T12:51:14;21.97;;;14.20;;
13267;SDS011;6702;47.068;15.458;2023-05-13T12:54:17;13.80;;;12.00;;
13267;SDS011;6702;47.068;15.458;2023-05-13T12:57:23;10.60;;;9.43;;
13267;SDS011;6702;47.068;15.458;2023-05-13T13:00:26;19.03;;;14.10;;
13267;SDS011;6702;47.068;15.458;2023-05-13T13:03:30;12.90;;;10.80;;
13267;SDS011;6702;47.068;15.458;2023-05-13T13:06:33;9.70;;;8.70;;
13267;SDS011;6702;47.068;15.458;2023-05-13T13:09:36;8.43;;;7.73;;
13267;SDS011;6702;47.068;15.458;2023-05-13T13:12:41;9.97;;;8.83;;
13267;SDS011;6702;47.068;15.458;2023-05-13T13:15:45;16.47;;;13.13;;
13267;SDS011;6702;47.068;15.458;2023-05-13T13:18:48;9.87;;;8.97;;
13267;SDS011;6702;47.068;15.458;2023-05-13T13:21:55;9.00;;;8.20;;
13267;SDS011;6702;47.068;15.458;2023-05-13T13:24:58;12.50;;;9.77;;
13267;SDS011;6702;47.068;15.458;2023-05-13T13:28:03;10.00;;;8.17;;
13267;SDS011;6702;47.068;15.458;2023-05-13T13:31:06;9.37;;;8.33;;
13267;SDS011;6702;47.068;15.458;2023-05-13T13:34:09;8.00;;;7.20;;
13267;SDS011;6702;47.068;15.458;2023-05-13T13:37:12;7.70;;;7.00;;
13267;SDS011;6702;47.068;15.458;2023-05-13T13:40:15;8.00;;;7.30;;
13267;SDS011;6702;47.068;15.458;2023-05-13T13:43:21;8.07;;;7.20;;
13267;SDS011;6702;47.068;15.458;2023-05-13T13:46:24;9.40;;;8.50;;
13267;SDS011;6702;47.068;15.458;2023-05-13T13:49:28;8.87;;;8.07;;
13267;SDS011;6702;47.068;15.458;2023-05-13T13:52:31;10.00;;;9.00;;
13267;SDS011;6702;47.068;15.458;2023-05-13T13:55:34;9.13;;;8.33;;
13267;SDS011;6702;47.068;15.458;2023-05-13T13:58:39;8.60;;;7.77;;
13267;SDS011;6702;47.068;15.458;2023-05-13T14:01:42;9.37;;;8.47;;
13267;SDS011;6702;47.068;15.458;2023-05-13T14:04:45;9.63;;;8.73;;
13267;SDS011;6702;47.068;15.458;2023-05-13T14:07:48;10.27;;;8.90;;
13267;SDS011;6702;47.068;15.458;2023-05-13T14:10:55;9.47;;;8.57;;
13267;SDS011;6702;47.068;15.458;2023-05-13T14:14:00;8.80;;;8.00;;
13267;SDS011;6702;47.068;15.458;2023-05-13T14:17:03;8.00;;;7.20;;
13267;SDS011;6702;47.068;15.458;2023-05-13T14:20:07;8.10;;;7.40;;
13267;SDS011;6702;47.068;15.458;2023-05-13T14:23:12;8.13;;;7.40;;
13267;SDS011;6702;47.068;15.458;2023-05-13T14:26:15;7.10;;;6.50;;
13267;SDS011;6702;47.068;15.458;2023-05-13T14:29:20;7.47;;;6.70;;
13267;SDS011;6702;47.068;15.458;2023-05-13T14:32:23;6.20;;;5.60;;
13267;SDS011;6702;47.068;15.458;2023-05-13T14:35:26;6.13;;;5.57;;
13267;SDS011;6702;47.068;15.458;2023-05-13T14:38:30;9.03;;;7.63;;
13267;SDS011;6702;47.068;15.458;2023-05-13T14:41:33;7.40;;;6.70;;
13267;SDS011;6702;47.068;15.458;2023-05-13T14:44:37;7.67;;;6.97;;
13267;SDS011;6702;47.068;15.458;2023-05-13T14:47:41;11.77;;;8.03;;
13267;SDS011;6702;47.068;15.458;2023-05-13T14:50:45;10.07;;;7.07;;
13267;SDS011;6702;47.068;15.458;2023-05-13T14:53:48;9.50;;;8.50;;
13267;SDS011;6702;47.068;15.458;2023-05-13T14:56:51;9.00;;;8.03;;
13267;SDS011;6702;47.068;15.458;2023-05-13T14:59:56;8.53;;;7.73;;
13267;SDS011;6702;47.068;15.458;2023-05-13T15:03:00;12.70;;;9.20;;
13267;SDS011;6702;47.068;15.458;2023-05-13T15:06:04;10.00;;;8.23;;
13267;SDS011;6702;47.068;15.458;2023-05-13T15:09:09;9.73;;;8.73;;
13267;SDS011;6702;47.068;15.458;2023-05-13T15:12:13;11.63;;;9.60;;
13267;SDS011;6702;47.068;15.458;2023-05-13T15:15:17;13.50;;;10.50;;
13267;SDS011;6702;47.068;15.458;2023-05-13T15:18:23;11.93;;;9.50;;
13267;SDS011;6702;47.068;15.458;2023-05-13T15:21:26;12.30;;;10.57;;
13267;SDS011;6702;47.068;15.458;2023-05-13T15:24:29;10.97;;;9.33;;
13267;SDS011;6702;47.068;15.458;2023-05-13T15:27:33;9.73;;;8.73;;
13267;SDS011;6702;47.068;15.458;2023-05-13T15:30:37;11.90;;;9.77;;
13267;SDS011;6702;47.068;15.458;2023-05-13T15:33:41;9.80;;;8.73;;
13267;SDS011;6702;47.068;15.458;2023-05-13T15:36:45;12.10;;;9.93;;
13267;SDS011;6702;47.068;15.458;2023-05-13T15:39:48;11.60;;;10.10;;
13267;SDS011;6702;47.068;15.458;2023-05-13T15:42:51;12.90;;;10.53;;
13267;SDS011;6702;47.068;15.458;2023-05-13T15:45:56;14.50;;;10.87;;
13267;SDS011;6702;47.068;15.458;2023-05-13T15:49:00;14.10;;;10.17;;
13267;SDS011;6702;47.068;15.458;2023-05-13T15:52:03;12.93;;;11.13;;
13267;SDS011;6702;47.068;15.458;2023-05-13T15:55:07;14.37;;;11.20;;
13267;SDS011;6702;47.068;15.458;2023-05-13T15:58:11;11.37;;;10.17;;
13267;SDS011;6702;47.068;15.458;2023-05-13T16:01:16;14.43;;;11.73;;
13267;SDS011;6702;47.068;15.458;2023-05-13T16:04:19;15.10;;;10.80;;
13267;SDS011;6702;47.068;15.458;2023-05-13T16:07:22;12.17;;;10.50;;
13267;SDS011;6702;47.068;15.458;2023-05-13T16:10:25;10.20;;;9.20;;
13267;SDS011;6702;47.068;15.458;2023-05-13T16:13:28;12.70;;;10.77;;
13267;SDS011;6702;47.068;15.458;2023-05-13T16:16:33;11.37;;;10.17;;
13267;SDS011;6702;47.068;15.458;2023-05-13T16:19:36;10.67;;;9.03;;
13267;SDS011;6702;47.068;15.458;2023-05-13T16:22:39;11.13;;;9.93;;
13267;SDS011;6702;47.068;15.458;2023-05-13T16:25:43;12.73;;;9.50;;
13267;SDS011;6702;47.068;15.458;2023-05-13T16:28:48;10.77;;;9.20;;
13267;SDS011;6702;47.068;15.458;2023-05-13T16:31:53;12.77;;;10.87;;
13267;SDS011;6702;47.068;15.458;2023-05-13T16:34:57;10.00;;;9.00;;
13267;SDS011;6702;47.068;15.458;2023-05-13T16:38:01;11.77;;;9.80;;
13267;SDS011;6702;47.068;15.458;2023-05-13T16:41:05;10.13;;;9.17;;
13267;SDS011;6702;47.068;15.458;2023-05-13T16:44:08;12.20;;;8.97;;
13267;SDS011;6702;47.068;15.458;2023-05-13T16:47:13;10.80;;;9.10;;
13267;SDS011;6702;47.068;15.458;2023-05-13T16:50:16;10.17;;;9.10;;
13267;SDS011;6702;47.068;15.458;2023-05-13T16:53:19;9.07;;;8.20;;
13267;SDS011;6702;47.068;15.458;2023-05-13T16:56:23;9.83;;;8.17;;
13267;SDS011;6702;47.068;15.458;2023-05-13T16:59:26;8.50;;;7.50;;
13267;SDS011;6702;47.068;15.458;2023-05-13T17:02:31;9.57;;;8.00;;
13267;SDS011;6702;47.068;15.458;2023-05-13T17:05:34;11.20;;;8.60;;
13267;SDS011;6702;47.068;15.458;2023-05-13T17:08:40;9.27;;;8.47;;
13267;SDS011;6702;47.068;15.458;2023-05-13T17:11:44;8.50;;;7.70;;
13267;SDS011;6702;47.068;15.458;2023-05-13T17:14:52;12.47;;;9.87;;
13267;SDS011;6702;47.068;15.458;2023-05-13T17:17:56;8.90;;;8.17;;
13267;SDS011;6702;47.068;15.458;2023-05-13T17:21:00;9.23;;;8.33;;
13267;SDS011;6702;47.068;15.458;2023-05-13T17:24:04;10.80;;;9.70;;
13267;SDS011;6702;47.068;15.458;2023-05-13T17:27:07;9.53;;;8.60;;
13267;SDS011;6702;47.068;15.458;2023-05-13T17:30:12;9.90;;;8.57;;
13267;SDS011;6702;47.068;15.458;2023-05-13T17:33:17;10.73;;;9.70;;
13267;SDS011;6702;47.068;15.458;2023-05-13T17:36:20;12.27;;;11.00;;
13267;SDS011;6702;47.068;15.458;2023-05-13T17:39:24;13.30;;;10.97;;
13267;SDS011;6702;47.068;15.458;2023-05-13T17:42:27;13.33;;;11.93;;
13267;SDS011;6702;47.068;15.458;2023-05-13T17:45:31;17.03;;;15.27;;
13267;SDS011;6702;47.068;15.458;2023-05-13T17:48:37;15.00;;;13.10;;
13267;SDS011;6702;47.068;15.458;2023-05-13T17:51:40;17.63;;;13.90;;
13267;SDS011;6702;47.068;15.458;2023-05-13T17:54:44;15.30;;;13.40;;
13267;SDS011;6702;47.068;15.458;2023-05-13T17:57:47;13.97;;;12.67;;
13267;SDS011;6702;47.068;15.458;2023-05-13T18:00:50;15.57;;;13.80;;
13267;SDS011;6702;47.068;15.458;2023-05-13T18:03:55;15.67;;;14.07;;
13267;SDS011;6702;47.068;15.458;2023-05-13T18:06:58;15.37;;;13.07;;
13267;SDS011;6702;47.068;15.458;2023-05-13T18:10:01;18.20;;;15.50;;
13267;SDS011;6702;47.068;15.458;2023-05-13T18:13:05;16.13;;;14.50;;
13267;SDS011;6702;47.068;15.458;2023-05-13T18:16:08;18.20;;;14.73;;
13267;SDS011;6702;47.068;15.458;2023-05-13T18:19:13;17.63;;;14.80;;
13267;SDS011;6702;47.068;15.458;2023-05-13T18:22:16;17.80;;;15.20;;
13267;SDS011;6702;47.068;15.458;2023-05-13T18:25:19;19.73;;;15.70;;